Terminal Aerodrome Forecast
Issued by NWS

Home | Current Version | Previous Version | Text Only | Print | Product List | Glossary On
Versions: 1 2 3 4 5 6 7 8 9 10 11 12 13
000
FTUS42 TJSJ 222300 RRA
TAFNCM
TAF
TNCM 222342Z 2300/2324 09010KT P6SM SCT020 SCT040
     FM231300 10013G18KT P6SM SCT022=

USA.gov is the U.S. government's official web portal to all federal, state and local government web resources and services.